sensor_id;sensor_type;location;lat;lon;timestamp;pressure;altitude;pressure_sealevel;temperature;humidity
70011;BME280;59543;37.950;-122.338;2023-06-10T00:02:12;101315.16;;;22.38;43.77
70011;BME280;59543;37.950;-122.338;2023-06-10T00:04:39;101318.53;;;22.13;45.13
70011;BME280;59543;37.950;-122.338;2023-06-10T00:07:05;101317.94;;;22.11;45.15
70011;BME280;59543;37.950;-122.338;2023-06-10T00:09:36;101319.38;;;22.01;46.37
70011;BME280;59543;37.950;-122.338;2023-06-10T00:12:04;101319.59;;;22.12;45.69
70011;BME280;59543;37.950;-122.338;2023-06-10T00:14:33;101320.84;;;22.56;45.47
70011;BME280;59543;37.950;-122.338;2023-06-10T00:16:59;101313.91;;;21.94;45.50
70011;BME280;59543;37.950;-122.338;2023-06-10T00:19:25;101314.38;;;22.18;45.30
70011;BME280;59543;37.950;-122.338;2023-06-10T00:21:56;101312.81;;;22.62;45.45
70011;BME280;59543;37.950;-122.338;2023-06-10T00:24:23;101310.72;;;22.44;45.77
70011;BME280;59543;37.950;-122.338;2023-06-10T00:26:49;101307.81;;;22.39;45.33
70011;BME280;59543;37.950;-122.338;2023-06-10T00:29:16;101309.06;;;21.96;46.73
70011;BME280;59543;37.950;-122.338;2023-06-10T00:31:44;101318.41;;;21.34;47.79
70011;BME280;59543;37.950;-122.338;2023-06-10T00:34:11;101305.25;;;21.57;49.21
70011;BME280;59543;37.950;-122.338;2023-06-10T00:36:37;101313.28;;;21.85;47.15
70011;BME280;59543;37.950;-122.338;2023-06-10T00:39:04;101319.66;;;21.31;49.14
70011;BME280;59543;37.950;-122.338;2023-06-10T00:41:30;101307.88;;;21.24;48.85
70011;BME280;59543;37.950;-122.338;2023-06-10T00:43:56;101308.59;;;21.46;49.16
70011;BME280;59543;37.950;-122.338;2023-06-10T00:46:24;101308.44;;;21.94;47.51
70011;BME280;59543;37.950;-122.338;2023-06-10T00:48:52;101301.44;;;21.72;48.01
70011;BME280;59543;37.950;-122.338;2023-06-10T00:51:19;101300.22;;;22.01;46.06
70011;BME280;59543;37.950;-122.338;2023-06-10T00:53:46;101304.00;;;21.66;47.71
70011;BME280;59543;37.950;-122.338;2023-06-10T00:56:13;101294.94;;;21.73;47.49
70011;BME280;59543;37.950;-122.338;2023-06-10T00:58:41;101308.06;;;21.29;48.01
70011;BME280;59543;37.950;-122.338;2023-06-10T01:01:07;101313.03;;;20.99;48.42
70011;BME280;59543;37.950;-122.338;2023-06-10T01:03:37;101311.63;;;20.68;49.20
70011;BME280;59543;37.950;-122.338;2023-06-10T01:06:28;101317.38;;;19.96;50.79
70011;BME280;59543;37.950;-122.338;2023-06-10T01:09:18;101316.72;;;19.72;52.36
70011;BME280;59543;37.950;-122.338;2023-06-10T01:12:01;101316.66;;;19.87;51.19
70011;BME280;59543;37.950;-122.338;2023-06-10T01:14:29;101320.84;;;19.83;52.16
70011;BME280;59543;37.950;-122.338;2023-06-10T01:16:58;101319.69;;;19.71;52.51
70011;BME280;59543;37.950;-122.338;2023-06-10T01:19:26;101323.34;;;19.84;52.10
70011;BME280;59543;37.950;-122.338;2023-06-10T01:21:52;101314.44;;;20.19;52.24
70011;BME280;59543;37.950;-122.338;2023-06-10T01:24:20;101312.38;;;20.55;50.67
70011;BME280;59543;37.950;-122.338;2023-06-10T01:26:50;101312.47;;;20.75;50.66
70011;BME280;59543;37.950;-122.338;2023-06-10T01:29:31;101321.97;;;20.73;52.16
70011;BME280;59543;37.950;-122.338;2023-06-10T01:32:08;101306.53;;;21.00;49.56
70011;BME280;59543;37.950;-122.338;2023-06-10T01:34:37;101313.63;;;20.53;50.71
70011;BME280;59543;37.950;-122.338;2023-06-10T01:37:06;101307.88;;;20.48;50.78
70011;BME280;59543;37.950;-122.338;2023-06-10T01:39:32;101309.84;;;20.26;51.98
70011;BME280;59543;37.950;-122.338;2023-06-10T01:42:00;101304.97;;;20.91;49.62
70011;BME280;59543;37.950;-122.338;2023-06-10T01:44:28;101304.34;;;20.82;50.52
70011;BME280;59543;37.950;-122.338;2023-06-10T01:46:54;101301.28;;;20.64;50.57
70011;BME280;59543;37.950;-122.338;2023-06-10T01:49:20;101307.63;;;21.12;49.62
70011;BME280;59543;37.950;-122.338;2023-06-10T01:51:49;101307.66;;;21.26;48.31
70011;BME280;59543;37.950;-122.338;2023-06-10T01:54:16;101301.41;;;20.90;49.58
70011;BME280;59543;37.950;-122.338;2023-06-10T01:56:42;101303.84;;;21.27;48.37
70011;BME280;59543;37.950;-122.338;2023-06-10T01:59:08;101300.63;;;21.58;47.62
70011;BME280;59543;37.950;-122.338;2023-06-10T02:01:35;101304.22;;;21.85;47.31
70011;BME280;59543;37.950;-122.338;2023-06-10T02:04:01;101292.19;;;22.12;46.57
70011;BME280;59543;37.950;-122.338;2023-06-10T02:06:28;101292.63;;;22.03;46.93
70011;BME280;59543;37.950;-122.338;2023-06-10T02:08:54;101297.06;;;21.97;47.35
70011;BME280;59543;37.950;-122.338;2023-06-10T02:11:20;101289.94;;;22.94;44.34
70011;BME280;59543;37.950;-122.338;2023-06-10T02:13:47;101293.88;;;22.40;45.89
70011;BME280;59543;37.950;-122.338;2023-06-10T02:16:14;101294.91;;;21.66;47.76
70011;BME280;59543;37.950;-122.338;2023-06-10T02:18:43;101298.75;;;21.85;47.90
70011;BME280;59543;37.950;-122.338;2023-06-10T02:21:09;101293.00;;;21.53;48.27
70011;BME280;59543;37.950;-122.338;2023-06-10T02:23:36;101305.75;;;21.33;48.61
70011;BME280;59543;37.950;-122.338;2023-06-10T02:26:02;101303.28;;;20.83;49.82
70011;BME280;59543;37.950;-122.338;2023-06-10T02:28:29;101289.16;;;21.34;48.71
70011;BME280;59543;37.950;-122.338;2023-06-10T02:30:55;101302.47;;;21.37;48.59
70011;BME280;59543;37.950;-122.338;2023-06-10T02:33:23;101294.97;;;21.11;49.34
70011;BME280;59543;37.950;-122.338;2023-06-10T02:35:50;101297.06;;;20.61;50.82
70011;BME280;59543;37.950;-122.338;2023-06-10T02:38:16;101297.38;;;20.17;51.72
70011;BME280;59543;37.950;-122.338;2023-06-10T02:40:43;101291.03;;;19.88;52.79
70011;BME280;59543;37.950;-122.338;2023-06-10T02:43:10;101287.69;;;19.86;52.71
70011;BME280;59543;37.950;-122.338;2023-06-10T02:45:36;101285.91;;;19.35;53.67
70011;BME280;59543;37.950;-122.338;2023-06-10T02:48:02;101294.78;;;19.23;54.50
70011;BME280;59543;37.950;-122.338;2023-06-10T02:50:28;101293.41;;;19.12;54.82
70011;BME280;59543;37.950;-122.338;2023-06-10T02:52:54;101301.81;;;18.66;56.40
70011;BME280;59543;37.950;-122.338;2023-06-10T02:55:21;101305.16;;;18.53;57.20
70011;BME280;59543;37.950;-122.338;2023-06-10T02:57:47;101309.13;;;18.50;56.85
70011;BME280;59543;37.950;-122.338;2023-06-10T03:00:13;101303.06;;;18.25;58.16
70011;BME280;59543;37.950;-122.338;2023-06-10T03:02:40;101307.44;;;17.74;59.81
70011;BME280;59543;37.950;-122.338;2023-06-10T03:05:07;101313.38;;;17.54;60.42
70011;BME280;59543;37.950;-122.338;2023-06-10T03:07:36;101313.75;;;17.20;61.38
70011;BME280;59543;37.950;-122.338;2023-06-10T03:10:03;101316.38;;;17.05;62.25
70011;BME280;59543;37.950;-122.338;2023-06-10T03:12:30;101310.78;;;16.99;62.93
70011;BME280;59543;37.950;-122.338;2023-06-10T03:14:56;101317.16;;;16.66;63.57
70011;BME280;59543;37.950;-122.338;2023-06-10T03:17:22;101316.03;;;16.53;64.36
70011;BME280;59543;37.950;-122.338;2023-06-10T03:19:48;101318.84;;;16.84;63.29
70011;BME280;59543;37.950;-122.338;2023-06-10T03:22:16;101322.75;;;16.81;63.31
70011;BME280;59543;37.950;-122.338;2023-06-10T03:24:42;101315.81;;;16.79;63.10
70011;BME280;59543;37.950;-122.338;2023-06-10T03:27:10;101322.81;;;16.57;64.05
70011;BME280;59543;37.950;-122.338;2023-06-10T03:29:40;101320.00;;;16.34;64.65
70011;BME280;59543;37.950;-122.338;2023-06-10T03:32:07;101306.28;;;16.19;65.18
70011;BME280;59543;37.950;-122.338;2023-06-10T03:34:33;101316.41;;;16.41;64.44
70011;BME280;59543;37.950;-122.338;2023-06-10T03:36:59;101322.75;;;15.93;65.47
70011;BME280;59543;37.950;-122.338;2023-06-10T03:39:26;101324.94;;;15.89;65.71
70011;BME280;59543;37.950;-122.338;2023-06-10T03:41:55;101332.41;;;15.95;66.38
70011;BME280;59543;37.950;-122.338;2023-06-10T03:44:23;101329.19;;;16.08;65.88
70011;BME280;59543;37.950;-122.338;2023-06-10T03:46:50;101333.56;;;16.17;65.66
70011;BME280;59543;37.950;-122.338;2023-06-10T03:49:16;101333.91;;;16.14;66.25
70011;BME280;59543;37.950;-122.338;2023-06-10T03:51:43;101324.44;;;16.02;66.16
70011;BME280;59543;37.950;-122.338;2023-06-10T03:54:09;101323.25;;;15.88;66.93
70011;BME280;59543;37.950;-122.338;2023-06-10T03:56:35;101324.34;;;15.37;67.08
70011;BME280;59543;37.950;-122.338;2023-06-10T03:59:02;101319.63;;;15.55;66.13
70011;BME280;59543;37.950;-122.338;2023-06-10T04:01:28;101324.25;;;15.04;68.09
70011;BME280;59543;37.950;-122.338;2023-06-10T04:03:54;101322.56;;;15.03;68.43
70011;BME280;59543;37.950;-122.338;2023-06-10T04:06:21;101325.50;;;14.75;69.74
70011;BME280;59543;37.950;-122.338;2023-06-10T04:08:48;101334.56;;;15.00;68.93
70011;BME280;59543;37.950;-122.338;2023-06-10T04:11:14;101335.97;;;15.04;69.50
70011;BME280;59543;37.950;-122.338;2023-06-10T04:13:40;101334.75;;;15.07;70.03
70011;BME280;59543;37.950;-122.338;2023-06-10T04:16:07;101334.41;;;15.02;70.55
70011;BME280;59543;37.950;-122.338;2023-06-10T04:18:33;101330.06;;;15.17;69.78
70011;BME280;59543;37.950;-122.338;2023-06-10T04:20:59;101328.81;;;14.95;70.56
70011;BME280;59543;37.950;-122.338;2023-06-10T04:23:25;101338.13;;;15.01;70.50
70011;BME280;59543;37.950;-122.338;2023-06-10T04:25:52;101335.88;;;14.88;70.85
70011;BME280;59543;37.950;-122.338;2023-06-10T04:28:18;101343.56;;;14.67;71.17
70011;BME280;59543;37.950;-122.338;2023-06-10T04:30:44;101339.13;;;14.57;71.15
70011;BME280;59543;37.950;-122.338;2023-06-10T04:33:13;101337.06;;;14.33;71.89
70011;BME280;59543;37.950;-122.338;2023-06-10T04:35:39;101343.16;;;14.53;71.75
70011;BME280;59543;37.950;-122.338;2023-06-10T04:38:05;101344.56;;;14.39;71.83
70011;BME280;59543;37.950;-122.338;2023-06-10T04:40:32;101342.34;;;14.61;70.75
70011;BME280;59543;37.950;-122.338;2023-06-10T04:43:00;101346.75;;;14.62;70.81
70011;BME280;59543;37.950;-122.338;2023-06-10T04:45:26;101350.16;;;14.46;71.04
70011;BME280;59543;37.950;-122.338;2023-06-10T04:47:54;101347.63;;;14.18;72.63
70011;BME280;59543;37.950;-122.338;2023-06-10T04:50:21;101345.59;;;14.47;71.47
70011;BME280;59543;37.950;-122.338;2023-06-10T04:52:47;101346.25;;;14.40;71.83
70011;BME280;59543;37.950;-122.338;2023-06-10T04:55:14;101348.81;;;14.42;71.62
70011;BME280;59543;37.950;-122.338;2023-06-10T04:57:40;101343.13;;;14.27;72.29
70011;BME280;59543;37.950;-122.338;2023-06-10T05:00:07;101355.53;;;14.12;72.78
70011;BME280;59543;37.950;-122.338;2023-06-10T05:02:34;101363.34;;;14.41;71.64
70011;BME280;59543;37.950;-122.338;2023-06-10T05:05:00;101367.97;;;14.49;71.25
70011;BME280;59543;37.950;-122.338;2023-06-10T05:07:26;101368.00;;;14.31;72.03
70011;BME280;59543;37.950;-122.338;2023-06-10T05:09:53;101370.47;;;14.42;71.94
70011;BME280;59543;37.950;-122.338;2023-06-10T05:12:19;101365.94;;;14.25;72.48
70011;BME280;59543;37.950;-122.338;2023-06-10T05:14:45;101364.03;;;14.17;73.07
70011;BME280;59543;37.950;-122.338;2023-06-10T05:17:11;101365.31;;;14.13;73.11
70011;BME280;59543;37.950;-122.338;2023-06-10T05:19:38;101354.72;;;14.19;72.80
70011;BME280;59543;37.950;-122.338;2023-06-10T05:22:05;101360.78;;;13.95;73.63
70011;BME280;59543;37.950;-122.338;2023-06-10T05:24:31;101361.50;;;13.80;73.84
70011;BME280;59543;37.950;-122.338;2023-06-10T05:26:57;101365.00;;;13.72;74.71
70011;BME280;59543;37.950;-122.338;2023-06-10T05:29:23;101363.03;;;13.82;74.63
70011;BME280;59543;37.950;-122.338;2023-06-10T05:31:50;101370.00;;;14.03;73.66
70011;BME280;59543;37.950;-122.338;2023-06-10T05:34:16;101365.00;;;14.16;72.95
70011;BME280;59543;37.950;-122.338;2023-06-10T05:36:42;101363.44;;;14.31;71.91
70011;BME280;59543;37.950;-122.338;2023-06-10T05:39:09;101357.56;;;14.36;71.92
70011;BME280;59543;37.950;-122.338;2023-06-10T05:41:36;101360.47;;;14.43;72.03
70011;BME280;59543;37.950;-122.338;2023-06-10T05:44:02;101358.59;;;14.43;72.06
70011;BME280;59543;37.950;-122.338;2023-06-10T05:46:28;101358.59;;;14.43;71.52
70011;BME280;59543;37.950;-122.338;2023-06-10T05:48:55;101350.66;;;14.41;71.78
70011;BME280;59543;37.950;-122.338;2023-06-10T05:51:21;101351.44;;;14.52;71.12
70011;BME280;59543;37.950;-122.338;2023-06-10T05:53:47;101347.16;;;14.23;72.35
70011;BME280;59543;37.950;-122.338;2023-06-10T05:56:14;101343.13;;;14.27;71.88
70011;BME280;59543;37.950;-122.338;2023-06-10T05:58:40;101346.78;;;14.18;72.71
70011;BME280;59543;37.950;-122.338;2023-06-10T06:01:06;101342.13;;;13.84;73.91
70011;BME280;59543;37.950;-122.338;2023-06-10T06:03:33;101350.53;;;13.63;74.91
70011;BME280;59543;37.950;-122.338;2023-06-10T06:05:59;101337.69;;;13.83;74.20
70011;BME280;59543;37.950;-122.338;2023-06-10T06:08:25;101335.75;;;13.93;74.16
70011;BME280;59543;37.950;-122.338;2023-06-10T06:10:51;101336.19;;;14.07;73.57
70011;BME280;59543;37.950;-122.338;2023-06-10T06:13:18;101338.53;;;13.84;74.31
70011;BME280;59543;37.950;-122.338;2023-06-10T06:15:44;101337.56;;;13.85;74.27
70011;BME280;59543;37.950;-122.338;2023-06-10T06:18:10;101338.41;;;13.85;73.51
70011;BME280;59543;37.950;-122.338;2023-06-10T06:20:36;101341.00;;;13.77;74.97
70011;BME280;59543;37.950;-122.338;2023-06-10T06:23:02;101333.91;;;13.76;75.17
70011;BME280;59543;37.950;-122.338;2023-06-10T06:25:28;101326.00;;;14.01;73.78
70011;BME280;59543;37.950;-122.338;2023-06-10T06:27:55;101320.53;;;13.92;74.03
70011;BME280;59543;37.950;-122.338;2023-06-10T06:30:21;101330.97;;;13.87;74.09
70011;BME280;59543;37.950;-122.338;2023-06-10T06:32:47;101328.22;;;13.61;75.18
70011;BME280;59543;37.950;-122.338;2023-06-10T06:35:13;101336.72;;;13.84;74.37
70011;BME280;59543;37.950;-122.338;2023-06-10T06:37:40;101330.06;;;13.79;73.98
70011;BME280;59543;37.950;-122.338;2023-06-10T06:40:07;101336.19;;;13.63;74.77
70011;BME280;59543;37.950;-122.338;2023-06-10T06:42:33;101341.00;;;13.41;76.14
70011;BME280;59543;37.950;-122.338;2023-06-10T06:44:59;101331.66;;;13.54;75.39
70011;BME280;59543;37.950;-122.338;2023-06-10T06:47:26;101344.56;;;13.60;75.08
70011;BME280;59543;37.950;-122.338;2023-06-10T06:49:52;101336.63;;;13.58;75.39
70011;BME280;59543;37.950;-122.338;2023-06-10T06:52:18;101335.56;;;13.69;74.53
70011;BME280;59543;37.950;-122.338;2023-06-10T06:54:45;101335.25;;;13.72;74.63
70011;BME280;59543;37.950;-122.338;2023-06-10T06:57:11;101330.91;;;13.61;75.26
70011;BME280;59543;37.950;-122.338;2023-06-10T06:59:37;101334.13;;;13.47;75.90
70011;BME280;59543;37.950;-122.338;2023-06-10T07:02:04;101328.19;;;13.43;76.23
70011;BME280;59543;37.950;-122.338;2023-06-10T07:04:30;101327.72;;;13.30;76.71
70011;BME280;59543;37.950;-122.338;2023-06-10T07:06:56;101316.63;;;13.33;76.48
70011;BME280;59543;37.950;-122.338;2023-06-10T07:09:22;101319.34;;;13.51;75.95
70011;BME280;59543;37.950;-122.338;2023-06-10T07:11:49;101319.06;;;13.44;76.32
70011;BME280;59543;37.950;-122.338;2023-06-10T07:14:15;101317.94;;;13.65;75.57
70011;BME280;59543;37.950;-122.338;2023-06-10T07:16:41;101315.44;;;13.54;76.24
70011;BME280;59543;37.950;-122.338;2023-06-10T07:19:07;101316.94;;;13.66;75.96
70011;BME280;59543;37.950;-122.338;2023-06-10T07:21:33;101305.81;;;13.69;75.80
70011;BME280;59543;37.950;-122.338;2023-06-10T07:24:00;101303.03;;;13.61;76.79
70011;BME280;59543;37.950;-122.338;2023-06-10T07:26:26;101295.69;;;13.53;77.63
70011;BME280;59543;37.950;-122.338;2023-06-10T07:28:52;101294.75;;;13.44;79.04
70011;BME280;59543;37.950;-122.338;2023-06-10T07:31:19;101301.78;;;13.55;78.63
70011;BME280;59543;37.950;-122.338;2023-06-10T07:33:46;101298.47;;;13.61;78.27
70011;BME280;59543;37.950;-122.338;2023-06-10T07:36:12;101297.94;;;13.76;77.57
70011;BME280;59543;37.950;-122.338;2023-06-10T07:38:38;101299.09;;;13.73;77.60
70011;BME280;59543;37.950;-122.338;2023-06-10T07:41:04;101301.03;;;13.63;78.19
70011;BME280;59543;37.950;-122.338;2023-06-10T07:43:31;101301.56;;;13.66;78.08
70011;BME280;59543;37.950;-122.338;2023-06-10T07:45:57;101295.84;;;13.69;77.97
70011;BME280;59543;37.950;-122.338;2023-06-10T07:48:23;101294.91;;;13.79;77.35
70011;BME280;59543;37.950;-122.338;2023-06-10T07:50:49;101302.53;;;13.83;77.17
70011;BME280;59543;37.950;-122.338;2023-06-10T07:53:16;101302.09;;;13.70;77.27
70011;BME280;59543;37.950;-122.338;2023-06-10T07:55:42;101302.41;;;13.67;77.60
70011;BME280;59543;37.950;-122.338;2023-06-10T07:58:08;101295.63;;;13.63;77.24
70011;BME280;59543;37.950;-122.338;2023-06-10T08:00:34;101291.19;;;13.80;76.53
70011;BME280;59543;37.950;-122.338;2023-06-10T08:03:00;101300.78;;;13.74;76.50
70011;BME280;59543;37.950;-122.338;2023-06-10T08:05:27;101295.06;;;13.77;76.18
70011;BME280;59543;37.950;-122.338;2023-06-10T08:07:53;101297.31;;;13.64;76.87
70011;BME280;59543;37.950;-122.338;2023-06-10T08:10:20;101297.44;;;13.80;76.00
70011;BME280;59543;37.950;-122.338;2023-06-10T08:12:47;101302.94;;;13.88;75.80
70011;BME280;59543;37.950;-122.338;2023-06-10T08:15:13;101297.00;;;13.85;75.41
70011;BME280;59543;37.950;-122.338;2023-06-10T08:17:39;101297.38;;;13.90;74.92
70011;BME280;59543;37.950;-122.338;2023-06-10T08:20:06;101298.03;;;13.66;76.12
70011;BME280;59543;37.950;-122.338;2023-06-10T08:22:33;101293.78;;;13.89;74.87
70011;BME280;59543;37.950;-122.338;2023-06-10T08:24:59;101285.94;;;13.78;75.43
70011;BME280;59543;37.950;-122.338;2023-06-10T08:27:25;101287.84;;;13.86;75.69
70011;BME280;59543;37.950;-122.338;2023-06-10T08:29:52;101284.91;;;13.97;74.85
70011;BME280;59543;37.950;-122.338;2023-06-10T08:32:18;101285.69;;;13.89;75.82
70011;BME280;59543;37.950;-122.338;2023-06-10T08:34:44;101281.91;;;13.82;76.19
70011;BME280;59543;37.950;-122.338;2023-06-10T08:37:10;101288.16;;;13.83;76.29
70011;BME280;59543;37.950;-122.338;2023-06-10T08:39:36;101282.88;;;13.73;77.14
70011;BME280;59543;37.950;-122.338;2023-06-10T08:44:38;101276.63;;;13.72;77.40
70011;BME280;59543;37.950;-122.338;2023-06-10T08:47:15;101276.09;;;13.69;77.69
70011;BME280;59543;37.950;-122.338;2023-06-10T08:49:46;101291.44;;;13.50;78.46
70011;BME280;59543;37.950;-122.338;2023-06-10T08:52:17;101283.00;;;13.54;78.56
70011;BME280;59543;37.950;-122.338;2023-06-10T08:54:51;101263.47;;;13.60;78.20
70011;BME280;59543;37.950;-122.338;2023-06-10T08:57:18;101272.81;;;13.47;78.53
70011;BME280;59543;37.950;-122.338;2023-06-10T08:59:48;101266.34;;;13.40;79.07
70011;BME280;59543;37.950;-122.338;2023-06-10T09:02:15;101263.13;;;13.37;79.57
70011;BME280;59543;37.950;-122.338;2023-06-10T09:04:46;101267.09;;;13.50;78.79
70011;BME280;59543;37.950;-122.338;2023-06-10T09:07:15;101254.53;;;13.41;78.87
70011;BME280;59543;37.950;-122.338;2023-06-10T09:09:45;101255.94;;;13.45;79.02
70011;BME280;59543;37.950;-122.338;2023-06-10T09:12:13;101248.75;;;13.36;79.65
70011;BME280;59543;37.950;-122.338;2023-06-10T09:14:41;101247.75;;;13.37;79.54
70011;BME280;59543;37.950;-122.338;2023-06-10T09:17:08;101238.25;;;13.33;79.21
70011;BME280;59543;37.950;-122.338;2023-06-10T09:19:35;101236.50;;;13.42;78.64
70011;BME280;59543;37.950;-122.338;2023-06-10T09:22:02;101233.72;;;13.34;78.86
70011;BME280;59543;37.950;-122.338;2023-06-10T09:24:29;101235.59;;;13.23;79.34
70011;BME280;59543;37.950;-122.338;2023-06-10T09:27:08;101233.75;;;13.24;79.51
70011;BME280;59543;37.950;-122.338;2023-06-10T09:32:18;101224.44;;;13.36;79.09
70011;BME280;59543;37.950;-122.338;2023-06-10T09:34:45;101226.88;;;13.30;79.48
70011;BME280;59543;37.950;-122.338;2023-06-10T09:37:12;101229.75;;;13.28;78.63
70011;BME280;59543;37.950;-122.338;2023-06-10T09:39:40;101220.72;;;13.37;78.09
70011;BME280;59543;37.950;-122.338;2023-06-10T09:42:16;101219.81;;;13.29;78.66
70011;BME280;59543;37.950;-122.338;2023-06-10T09:44:52;101212.47;;;13.39;78.00
70011;BME280;59543;37.950;-122.338;2023-06-10T09:47:22;101220.00;;;13.17;78.59
70011;BME280;59543;37.950;-122.338;2023-06-10T09:49:51;101213.94;;;13.33;78.16
70011;BME280;59543;37.950;-122.338;2023-06-10T09:52:28;101210.38;;;13.15;78.76
70011;BME280;59543;37.950;-122.338;2023-06-10T09:55:00;101212.16;;;13.24;77.93
70011;BME280;59543;37.950;-122.338;2023-06-10T09:57:31;101207.66;;;13.15;78.71
70011;BME280;59543;37.950;-122.338;2023-06-10T10:00:11;101207.72;;;13.23;78.18
70011;BME280;59543;37.950;-122.338;2023-06-10T10:02:49;101212.25;;;12.87;79.98
70011;BME280;59543;37.950;-122.338;2023-06-10T10:05:17;101227.72;;;12.94;79.56
70011;BME280;59543;37.950;-122.338;2023-06-10T10:07:45;101216.06;;;12.94;79.37
70011;BME280;59543;37.950;-122.338;2023-06-10T10:10:12;101208.81;;;12.94;79.56
70011;BME280;59543;37.950;-122.338;2023-06-10T10:12:40;101217.72;;;12.77;80.64
70011;BME280;59543;37.950;-122.338;2023-06-10T10:15:08;101207.25;;;12.92;79.65
70011;BME280;59543;37.950;-122.338;2023-06-10T10:17:39;101204.47;;;12.84;79.79
70011;BME280;59543;37.950;-122.338;2023-06-10T10:20:08;101205.69;;;12.71;80.57
70011;BME280;59543;37.950;-122.338;2023-06-10T10:22:42;101200.19;;;12.63;81.36
70011;BME280;59543;37.950;-122.338;2023-06-10T10:25:16;101205.25;;;12.76;81.33
70011;BME280;59543;37.950;-122.338;2023-06-10T10:27:59;101196.56;;;12.72;81.51
70011;BME280;59543;37.950;-122.338;2023-06-10T10:30:30;101201.06;;;12.64;82.31
70011;BME280;59543;37.950;-122.338;2023-06-10T10:35:52;101203.50;;;12.57;82.74
70011;BME280;59543;37.950;-122.338;2023-06-10T10:38:19;101198.31;;;12.73;82.29
70011;BME280;59543;37.950;-122.338;2023-06-10T10:40:47;101199.59;;;12.87;81.33
70011;BME280;59543;37.950;-122.338;2023-06-10T10:43:14;101198.66;;;12.78;81.35
70011;BME280;59543;37.950;-122.338;2023-06-10T10:45:41;101201.88;;;12.92;80.73
70011;BME280;59543;37.950;-122.338;2023-06-10T10:48:09;101200.06;;;12.65;82.38
70011;BME280;59543;37.950;-122.338;2023-06-10T10:50:39;101198.00;;;12.76;81.95
70011;BME280;59543;37.950;-122.338;2023-06-10T10:53:06;101203.94;;;12.80;81.45
70011;BME280;59543;37.950;-122.338;2023-06-10T10:55:32;101204.97;;;12.69;82.18
70011;BME280;59543;37.950;-122.338;2023-06-10T10:58:03;101204.13;;;12.69;81.86
70011;BME280;59543;37.950;-122.338;2023-06-10T11:00:37;101198.75;;;12.69;81.89
70011;BME280;59543;37.950;-122.338;2023-06-10T11:03:06;101195.91;;;12.70;81.84
70011;BME280;59543;37.950;-122.338;2023-06-10T11:05:43;101205.34;;;12.56;82.59
70011;BME280;59543;37.950;-122.338;2023-06-10T11:08:14;101197.91;;;12.68;82.14
70011;BME280;59543;37.950;-122.338;2023-06-10T11:10:51;101197.06;;;12.68;82.11
70011;BME280;59543;37.950;-122.338;2023-06-10T11:13:22;101203.06;;;12.62;82.24
70011;BME280;59543;37.950;-122.338;2023-06-10T11:15:49;101199.44;;;12.71;81.74
70011;BME280;59543;37.950;-122.338;2023-06-10T11:21:02;101189.09;;;12.66;81.68
70011;BME280;59543;37.950;-122.338;2023-06-10T11:31:42;101183.75;;;12.56;83.17
70011;BME280;59543;37.950;-122.338;2023-06-10T11:34:09;101178.84;;;12.52;83.29
70011;BME280;59543;37.950;-122.338;2023-06-10T11:36:41;101177.63;;;12.64;82.55
70011;BME280;59543;37.950;-122.338;2023-06-10T11:39:09;101174.53;;;12.77;81.89
70011;BME280;59543;37.950;-122.338;2023-06-10T11:41:37;101176.19;;;12.60;83.18
70011;BME280;59543;37.950;-122.338;2023-06-10T11:44:12;101169.22;;;12.67;82.86
70011;BME280;59543;37.950;-122.338;2023-06-10T11:46:39;101172.56;;;12.51;83.68
70011;BME280;59543;37.950;-122.338;2023-06-10T11:49:05;101169.31;;;12.48;83.60
70011;BME280;59543;37.950;-122.338;2023-06-10T11:51:38;101175.25;;;12.51;83.69
70011;BME280;59543;37.950;-122.338;2023-06-10T11:54:06;101171.50;;;12.62;83.52
70011;BME280;59543;37.950;-122.338;2023-06-10T11:56:32;101163.13;;;12.65;83.12
70011;BME280;59543;37.950;-122.338;2023-06-10T11:59:03;101170.38;;;12.65;83.50
70011;BME280;59543;37.950;-122.338;2023-06-10T12:01:37;101157.63;;;12.75;82.53
70011;BME280;59543;37.950;-122.338;2023-06-10T12:04:11;101159.66;;;12.73;83.31
70011;BME280;59543;37.950;-122.338;2023-06-10T12:06:51;101156.09;;;12.72;83.43
70011;BME280;59543;37.950;-122.338;2023-06-10T12:09:22;101151.72;;;12.89;81.75
70011;BME280;59543;37.950;-122.338;2023-06-10T12:17:09;101167.50;;;12.66;83.54
70011;BME280;59543;37.950;-122.338;2023-06-10T12:19:39;101163.34;;;12.72;83.49
70011;BME280;59543;37.950;-122.338;2023-06-10T12:22:05;101167.19;;;12.69;83.66
70011;BME280;59543;37.950;-122.338;2023-06-10T12:24:32;101172.16;;;12.74;83.63
70011;BME280;59543;37.950;-122.338;2023-06-10T12:26:58;101173.94;;;12.83;82.92
70011;BME280;59543;37.950;-122.338;2023-06-10T12:29:25;101175.63;;;12.84;82.67
70011;BME280;59543;37.950;-122.338;2023-06-10T12:31:56;101165.97;;;12.64;84.11
70011;BME280;59543;37.950;-122.338;2023-06-10T12:34:30;101163.75;;;12.77;82.93
70011;BME280;59543;37.950;-122.338;2023-06-10T12:36:56;101166.03;;;12.72;82.68
70011;BME280;59543;37.950;-122.338;2023-06-10T12:39:23;101170.00;;;12.77;82.94
70011;BME280;59543;37.950;-122.338;2023-06-10T12:41:51;101168.28;;;12.76;83.11
70011;BME280;59543;37.950;-122.338;2023-06-10T12:44:18;101176.16;;;12.70;83.72
70011;BME280;59543;37.950;-122.338;2023-06-10T12:46:44;101174.69;;;12.75;83.12
70011;BME280;59543;37.950;-122.338;2023-06-10T12:49:20;101184.59;;;12.57;84.50